createdAt,value
2022-09-06T00:01:23.439Z,1.75
2022-09-06T00:03:50.456Z,1.67
2022-09-06T00:06:18.747Z,1.90
2022-09-06T00:08:47.259Z,2.88
2022-09-06T00:11:15.589Z,2.15
2022-09-06T00:13:42.321Z,2.15
2022-09-06T00:16:19.692Z,1.40
2022-09-06T00:18:46.361Z,1.80
2022-09-06T00:21:18.640Z,1.80
2022-09-06T00:23:45.313Z,1.50
2022-09-06T00:26:12.453Z,1.60
2022-09-06T00:28:39.816Z,1.80
2022-09-06T00:31:15.475Z,1.60
2022-09-06T00:33:42.527Z,2.00
2022-09-06T00:36:10.254Z,1.73
2022-09-06T00:38:37.242Z,1.80
2022-09-06T00:41:04.916Z,1.60
2022-09-06T00:43:32.021Z,1.65
2022-09-06T00:45:58.824Z,1.65
2022-09-06T00:48:25.919Z,1.90
2022-09-06T00:51:00.853Z,1.85
2022-09-06T00:53:27.921Z,1.45
2022-09-06T00:55:55.152Z,1.80
2022-09-06T00:58:21.930Z,1.90
2022-09-06T01:00:48.627Z,2.72
2022-09-06T01:03:15.281Z,1.80
2022-09-06T01:06:01.349Z,1.63
2022-09-06T01:08:59.302Z,1.70
2022-09-06T01:11:41.620Z,1.70
2022-09-06T01:14:08.162Z,1.73
2022-09-06T01:16:46.028Z,1.70
2022-09-06T01:19:15.237Z,1.95
2022-09-06T01:22:21.837Z,2.20
2022-09-06T01:25:00.953Z,1.80
2022-09-06T01:27:46.220Z,1.88
2022-09-06T01:30:17.435Z,2.33
2022-09-06T01:32:53.213Z,2.20
2022-09-06T01:35:33.722Z,2.00
2022-09-06T01:38:01.913Z,2.17
2022-09-06T01:40:28.970Z,2.10
2022-09-06T01:42:56.757Z,1.85
2022-09-06T01:46:02.082Z,3.20
2022-09-06T01:48:50.404Z,2.13
2022-09-06T01:51:24.786Z,2.20
2022-09-06T01:54:14.725Z,2.03
2022-09-06T01:57:02.887Z,2.38
2022-09-06T01:59:34.235Z,2.00
2022-09-06T02:02:19.047Z,2.47
2022-09-06T02:05:10.377Z,2.42
2022-09-06T02:07:39.482Z,2.22
2022-09-06T02:10:08.545Z,2.30
2022-09-06T02:12:38.979Z,2.47
2022-09-06T02:15:15.111Z,2.00
2022-09-06T02:17:53.516Z,2.08
2022-09-06T02:20:26.578Z,2.25
2022-09-06T02:22:57.125Z,2.13
2022-09-06T02:25:28.308Z,2.33
2022-09-06T02:27:55.518Z,2.30
2022-09-06T02:30:22.058Z,2.33
2022-09-06T02:32:57.285Z,2.35
2022-09-06T02:35:24.341Z,2.58
2022-09-06T02:37:51.743Z,2.22
2022-09-06T02:40:18.521Z,2.17
2022-09-06T02:42:45.072Z,2.20
2022-09-06T02:45:11.601Z,1.83
2022-09-06T02:47:38.205Z,2.10
2022-09-06T02:50:04.998Z,2.28
2022-09-06T02:52:31.505Z,2.25
2022-09-06T02:54:57.964Z,2.05
2022-09-06T02:57:24.499Z,2.30
2022-09-06T02:59:51.414Z,2.28
2022-09-06T03:02:18.993Z,2.60
2022-09-06T03:04:45.590Z,2.40
2022-09-06T03:07:12.111Z,2.10
2022-09-06T03:09:38.689Z,2.20
2022-09-06T03:12:05.245Z,1.80
2022-09-06T03:14:31.842Z,2.00
2022-09-06T03:16:58.447Z,2.22
2022-09-06T03:19:25.104Z,2.30
2022-09-06T03:21:51.541Z,2.10
2022-09-06T03:24:18.198Z,1.90
2022-09-06T03:26:44.630Z,2.33
2022-09-06T03:29:11.320Z,1.98
2022-09-06T03:31:37.778Z,2.08
2022-09-06T03:34:07.031Z,1.85
2022-09-06T03:36:36.828Z,2.13
2022-09-06T03:39:03.564Z,2.22
2022-09-06T03:41:30.010Z,2.25
2022-09-06T03:43:56.647Z,2.33
2022-09-06T03:46:23.256Z,1.90
2022-09-06T03:48:50.009Z,2.35
2022-09-06T03:51:16.504Z,2.78
2022-09-06T03:53:43.062Z,3.13
2022-09-06T03:56:09.493Z,3.00
2022-09-06T03:58:36.134Z,3.40
2022-09-06T04:01:08.852Z,3.08
2022-09-06T04:03:35.920Z,2.53
2022-09-06T04:06:04.084Z,2.65
2022-09-06T04:08:31.032Z,2.38
2022-09-06T04:10:59.313Z,2.17
2022-09-06T04:13:28.014Z,2.50
2022-09-06T04:15:56.290Z,2.80
2022-09-06T04:18:23.218Z,2.78
2022-09-06T04:20:52.048Z,2.92
2022-09-06T04:23:19.102Z,2.53
2022-09-06T04:25:50.622Z,2.70
2022-09-06T04:28:18.307Z,2.72
2022-09-06T04:30:45.972Z,2.63
2022-09-06T04:33:12.437Z,2.53
2022-09-06T04:35:39.032Z,2.50
2022-09-06T04:38:05.627Z,2.78
2022-09-06T04:40:32.153Z,2.17
2022-09-06T04:42:58.696Z,3.45
2022-09-06T04:45:25.254Z,2.85
2022-09-06T04:47:51.797Z,2.35
2022-09-06T04:50:18.340Z,2.70
2022-09-06T04:52:44.872Z,2.55
2022-09-06T04:55:11.491Z,2.70
2022-09-06T04:57:42.034Z,2.20
2022-09-06T05:00:11.476Z,2.42
2022-09-06T05:02:38.073Z,2.50
2022-09-06T05:05:05.037Z,2.50
2022-09-06T05:07:31.481Z,2.50
2022-09-06T05:09:58.094Z,2.83
2022-09-06T05:12:24.586Z,2.60
2022-09-06T05:14:53.177Z,3.17
2022-09-06T05:17:19.767Z,2.50
2022-09-06T05:19:46.395Z,2.70
2022-09-06T05:22:12.848Z,2.40
2022-09-06T05:24:39.725Z,2.80
2022-09-06T05:27:07.475Z,2.22
2022-09-06T05:29:34.060Z,2.58
2022-09-06T05:32:00.960Z,2.50
2022-09-06T05:34:27.504Z,2.45
2022-09-06T05:36:53.964Z,2.40
2022-09-06T05:39:21.837Z,2.97
2022-09-06T05:41:48.577Z,2.60
2022-09-06T05:44:15.311Z,2.65
2022-09-06T05:46:45.706Z,2.65
2022-09-06T05:49:13.298Z,2.75
2022-09-06T05:51:40.721Z,2.33
2022-09-06T05:54:10.734Z,2.45
2022-09-06T05:56:37.384Z,2.70
2022-09-06T05:59:04.468Z,2.67
2022-09-06T06:01:31.232Z,2.53
2022-09-06T06:03:59.041Z,2.42
2022-09-06T06:06:27.495Z,3.17
2022-09-06T06:08:54.540Z,3.13
2022-09-06T06:11:21.244Z,3.15
2022-09-06T06:13:48.151Z,3.22
2022-09-06T06:16:19.757Z,2.80
2022-09-06T06:18:51.751Z,3.03
2022-09-06T06:21:23.494Z,2.92
2022-09-06T06:23:55.429Z,2.75
2022-09-06T06:26:22.925Z,2.83
2022-09-06T06:28:49.873Z,3.35
2022-09-06T06:31:16.747Z,2.97
2022-09-06T06:33:46.302Z,2.88
2022-09-06T06:36:13.195Z,3.00
2022-09-06T06:38:44.362Z,3.20
2022-09-06T06:41:14.238Z,3.00
2022-09-06T06:43:40.974Z,2.55
2022-09-06T06:46:10.182Z,3.13
2022-09-06T06:49:11.183Z,3.13
2022-09-06T06:51:37.850Z,2.78
2022-09-06T06:54:06.769Z,2.50
2022-09-06T06:56:36.167Z,2.35
2022-09-06T06:59:05.181Z,2.28
2022-09-06T07:01:34.309Z,2.08
2022-09-06T07:04:00.823Z,1.80
2022-09-06T07:09:15.677Z,1.63
2022-09-06T07:11:42.326Z,1.70
2022-09-06T07:14:08.973Z,1.55
2022-09-06T07:16:35.642Z,1.67
2022-09-06T07:19:02.427Z,1.95
2022-09-06T07:24:05.525Z,1.70
2022-09-06T07:26:32.664Z,1.65
2022-09-06T07:29:01.388Z,1.60
2022-09-06T07:34:17.578Z,1.70
2022-09-06T07:36:44.220Z,1.80
2022-09-06T07:39:10.770Z,2.03
2022-09-06T07:41:37.319Z,1.45
2022-09-06T07:44:03.980Z,1.38
2022-09-06T07:46:30.508Z,1.83
2022-09-06T07:48:57.233Z,1.40
2022-09-06T07:51:23.748Z,1.30
2022-09-06T07:54:12.838Z,1.50
2022-09-06T07:56:42.343Z,1.05
2022-09-06T07:59:09.306Z,1.52
2022-09-06T08:01:39.885Z,1.20
2022-09-06T08:04:08.837Z,1.10
2022-09-06T08:09:25.003Z,1.05
2022-09-06T08:11:52.663Z,1.23
2022-09-06T08:14:19.939Z,1.40
2022-09-06T08:16:46.502Z,1.33
2022-09-06T08:19:12.984Z,1.40
2022-09-06T08:21:39.605Z,1.38
2022-09-06T08:24:08.515Z,1.40
2022-09-06T08:26:39.255Z,1.40
2022-09-06T08:29:08.540Z,1.10
2022-09-06T08:31:37.949Z,1.20
2022-09-06T08:34:04.741Z,1.02
2022-09-06T08:36:32.298Z,1.52
2022-09-06T08:39:00.216Z,1.10
2022-09-06T08:41:49.983Z,0.90
2022-09-06T08:47:18.910Z,1.35
2022-09-06T08:49:52.846Z,1.10
2022-09-06T08:52:49.570Z,0.95
2022-09-06T08:55:39.591Z,1.10
2022-09-06T08:58:17.617Z,1.10
2022-09-06T09:00:58.572Z,1.23
2022-09-06T09:03:32.233Z,1.02
2022-09-06T09:05:59.988Z,0.95
2022-09-06T09:08:39.794Z,0.98
2022-09-06T09:11:10.238Z,1.00
2022-09-06T09:13:56.283Z,1.38
2022-09-06T09:16:23.318Z,1.00
2022-09-06T09:18:56.439Z,0.98
2022-09-06T09:21:30.126Z,1.00
2022-09-06T09:24:17.556Z,1.05
2022-09-06T09:26:46.690Z,0.98
2022-09-06T09:29:14.649Z,0.95
2022-09-06T09:31:53.613Z,0.90
2022-09-06T09:34:33.149Z,1.38
2022-09-06T09:40:04.637Z,1.10
2022-09-06T09:42:35.416Z,1.02
2022-09-06T09:45:06.091Z,0.90
2022-09-06T09:47:34.076Z,1.20
2022-09-06T09:50:00.547Z,0.90
2022-09-06T09:52:29.831Z,0.90
2022-09-06T09:55:00.415Z,0.90
2022-09-06T09:57:29.793Z,1.00
2022-09-06T10:00:01.055Z,1.00
2022-09-06T10:02:31.521Z,0.80
2022-09-06T10:05:13.288Z,0.90
2022-09-06T10:07:49.113Z,1.00
2022-09-06T10:10:27.848Z,0.85
2022-09-06T10:13:32.892Z,0.90
2022-09-06T10:16:00.582Z,1.20
2022-09-06T10:18:34.027Z,1.00
2022-09-06T10:21:09.115Z,1.08
2022-09-06T10:26:59.481Z,1.00
2022-09-06T10:29:28.814Z,0.98
2022-09-06T10:32:08.236Z,1.00
2022-09-06T10:34:59.108Z,1.27
2022-09-06T10:37:44.454Z,1.02
2022-09-06T10:40:17.455Z,1.00
2022-09-06T10:42:55.041Z,0.88
2022-09-06T10:45:27.543Z,1.08
2022-09-06T10:47:57.075Z,0.90
2022-09-06T10:50:36.235Z,1.00
2022-09-06T10:53:10.957Z,1.10
2022-09-06T11:00:47.315Z,0.90
2022-09-06T11:06:10.606Z,1.00
2022-09-06T11:09:11.048Z,1.10
2022-09-06T11:11:47.543Z,1.20
2022-09-06T11:14:15.557Z,1.50
2022-09-06T11:16:51.148Z,1.55
2022-09-06T11:19:29.857Z,1.30
2022-09-06T11:22:07.567Z,1.00
2022-09-06T11:25:03.457Z,1.20
2022-09-06T11:27:37.843Z,1.20
2022-09-06T11:30:06.771Z,1.10
2022-09-06T11:32:48.890Z,1.20
2022-09-06T11:35:32.574Z,1.17
2022-09-06T11:38:14.214Z,1.42
2022-09-06T11:40:44.795Z,1.10
2022-09-06T11:43:50.140Z,1.20
2022-09-06T11:46:49.210Z,1.35
2022-09-06T11:49:15.737Z,2.55
2022-09-06T11:51:44.674Z,1.40
2022-09-06T11:54:23.587Z,1.30
2022-09-06T11:56:58.778Z,1.33
2022-09-06T11:59:50.688Z,1.20
2022-09-06T12:02:35.249Z,1.15
2022-09-06T12:05:03.787Z,2.13
2022-09-06T12:07:32.195Z,1.20
2022-09-06T12:10:31.820Z,1.30
2022-09-06T12:12:59.026Z,1.35
2022-09-06T12:15:44.667Z,1.40
2022-09-06T12:18:43.143Z,1.48
2022-09-06T12:21:31.059Z,1.20
2022-09-06T12:23:58.076Z,1.23
2022-09-06T12:27:13.115Z,1.50
2022-09-06T12:29:40.162Z,1.40
2022-09-06T12:32:07.060Z,1.20
2022-09-06T12:34:35.480Z,1.50
2022-09-06T12:37:07.496Z,1.33
2022-09-06T12:39:34.776Z,1.25
2022-09-06T12:42:04.917Z,1.27
2022-09-06T12:44:35.961Z,1.20
2022-09-06T12:47:15.580Z,1.38
2022-09-06T12:49:42.049Z,1.30
2022-09-06T12:52:12.713Z,1.25
2022-09-06T12:54:48.626Z,1.38
2022-09-06T12:57:20.478Z,1.30
2022-09-06T12:59:51.362Z,1.35
2022-09-06T13:02:24.748Z,1.50
2022-09-06T13:05:07.178Z,1.55
2022-09-06T13:07:39.082Z,1.52
2022-09-06T13:10:06.807Z,1.50
2022-09-06T13:12:42.743Z,1.38
2022-09-06T13:15:31.117Z,1.40
2022-09-06T13:18:35.467Z,1.38
2022-09-06T13:21:03.790Z,1.50
2022-09-06T13:23:39.537Z,1.60
2022-09-06T13:26:05.951Z,1.40
2022-09-06T13:28:34.529Z,1.45
2022-09-06T13:31:18.897Z,1.80
2022-09-06T13:33:46.433Z,1.33
2022-09-06T13:36:24.219Z,1.20
2022-09-06T13:38:50.871Z,1.20
2022-09-06T13:41:26.440Z,1.35
2022-09-06T13:44:15.288Z,1.50
2022-09-06T13:46:42.033Z,1.58
2022-09-06T13:49:09.839Z,1.40
2022-09-06T13:51:39.024Z,1.70
2022-09-06T13:54:10.441Z,1.30
2022-09-06T13:56:39.149Z,1.38
2022-09-06T13:59:06.671Z,1.33
2022-09-06T14:01:34.049Z,1.30
2022-09-06T14:04:00.810Z,1.20
2022-09-06T14:06:27.743Z,1.10
2022-09-06T14:09:06.809Z,1.20
2022-09-06T14:11:34.897Z,1.15
2022-09-06T14:14:01.728Z,1.30
2022-09-06T14:16:28.334Z,1.50
2022-09-06T14:18:54.929Z,1.20
2022-09-06T14:21:21.644Z,1.27
2022-09-06T14:23:50.927Z,1.50
2022-09-06T14:26:18.834Z,1.10
2022-09-06T14:28:45.564Z,1.17
2022-09-06T14:31:17.767Z,1.30
2022-09-06T14:33:45.147Z,1.17
2022-09-06T14:36:14.673Z,1.20
2022-09-06T14:38:42.705Z,1.20
2022-09-06T14:41:09.997Z,1.02
2022-09-06T14:43:37.752Z,1.10
2022-09-06T14:46:06.779Z,0.98
2022-09-06T14:48:34.461Z,1.00
2022-09-06T14:51:09.892Z,1.23
2022-09-06T14:53:44.348Z,1.00
2022-09-06T14:56:12.092Z,0.90
2022-09-06T14:58:40.263Z,0.90
2022-09-06T15:01:14.861Z,0.98
2022-09-06T15:03:43.686Z,0.90
2022-09-06T15:06:10.874Z,1.10
2022-09-06T15:08:37.987Z,1.15
2022-09-06T15:11:06.874Z,1.10
2022-09-06T15:13:37.545Z,1.00
2022-09-06T15:16:05.717Z,0.90
2022-09-06T15:18:33.124Z,1.08
2022-09-06T15:21:12.979Z,1.00
2022-09-06T15:23:40.012Z,1.00
2022-09-06T15:26:11.963Z,1.20
2022-09-06T15:28:39.660Z,1.20
2022-09-06T15:31:08.222Z,1.27
2022-09-06T15:33:37.654Z,1.35
2022-09-06T15:36:06.398Z,1.10
2022-09-06T15:38:47.876Z,1.00
2022-09-06T15:41:18.172Z,1.08
2022-09-06T15:43:48.248Z,1.20
2022-09-06T15:46:16.631Z,0.98
2022-09-06T15:48:45.622Z,1.10
2022-09-06T15:51:14.895Z,1.08
2022-09-06T15:53:42.218Z,1.00
2022-09-06T15:56:12.268Z,1.10
2022-09-06T15:58:39.339Z,1.20
2022-09-06T16:01:07.546Z,0.93
2022-09-06T16:03:48.646Z,1.48
2022-09-06T16:09:05.080Z,1.10
2022-09-06T16:11:35.590Z,1.58
2022-09-06T16:14:04.590Z,1.10
2022-09-06T16:16:32.581Z,1.17
2022-09-06T16:19:00.119Z,1.25
2022-09-06T16:21:30.593Z,1.20
2022-09-06T16:24:01.315Z,1.20
2022-09-06T16:26:32.150Z,1.10
2022-09-06T16:28:59.500Z,1.10
2022-09-06T16:31:26.937Z,1.20
2022-09-06T16:33:53.799Z,1.38
2022-09-06T16:36:21.885Z,1.38
2022-09-06T16:38:48.934Z,1.05
2022-09-06T16:41:36.237Z,1.08
2022-09-06T16:44:03.025Z,1.20
2022-09-06T16:46:29.706Z,1.00
2022-09-06T16:49:02.867Z,1.48
2022-09-06T16:51:31.351Z,1.00
2022-09-06T16:53:58.756Z,1.08
2022-09-06T16:56:27.765Z,1.40
2022-09-06T16:58:56.623Z,1.10
2022-09-06T17:01:24.394Z,1.40
2022-09-06T17:03:51.958Z,1.38
2022-09-06T17:06:19.215Z,1.38
2022-09-06T17:08:46.215Z,1.05
2022-09-06T17:11:15.574Z,1.30
2022-09-06T17:13:43.815Z,1.30
2022-09-06T17:16:29.534Z,1.27
2022-09-06T17:18:56.121Z,1.30
2022-09-06T17:21:24.330Z,1.20
2022-09-06T17:23:52.518Z,1.50
2022-09-06T17:26:21.152Z,1.30
2022-09-06T17:28:50.820Z,1.33
2022-09-06T17:31:21.125Z,1.10
2022-09-06T17:33:50.654Z,1.30
2022-09-06T17:36:21.190Z,1.25
2022-09-06T17:38:52.809Z,1.50
2022-09-06T17:41:25.569Z,1.40
2022-09-06T17:43:53.967Z,1.33
2022-09-06T17:46:25.257Z,1.63
2022-09-06T17:48:54.624Z,2.13
2022-09-06T17:51:21.497Z,1.58
2022-09-06T17:53:47.994Z,1.50
2022-09-06T17:56:16.568Z,1.63
2022-09-06T17:58:43.531Z,1.70
2022-09-06T18:01:13.033Z,1.80
2022-09-06T18:03:43.073Z,2.00
2022-09-06T18:06:12.521Z,1.90
2022-09-06T18:08:42.371Z,2.10
2022-09-06T18:11:15.025Z,1.60
2022-09-06T18:13:42.888Z,1.80
2022-09-06T18:16:10.341Z,1.60
2022-09-06T18:18:37.052Z,1.70
2022-09-06T18:21:06.864Z,2.08
2022-09-06T18:23:34.297Z,1.70
2022-09-06T18:26:05.856Z,2.10
2022-09-06T18:28:34.392Z,1.50
2022-09-06T18:31:06.106Z,1.60
2022-09-06T18:33:33.097Z,1.63
2022-09-06T18:35:59.925Z,2.00
2022-09-06T18:38:27.049Z,1.73
2022-09-06T18:40:58.611Z,1.60
2022-09-06T18:43:31.088Z,1.60
2022-09-06T18:46:09.005Z,1.65
2022-09-06T18:48:38.349Z,1.70
2022-09-06T18:51:16.169Z,1.60
2022-09-06T18:53:44.899Z,1.90
2022-09-06T18:56:13.762Z,1.60
2022-09-06T18:58:41.442Z,2.00
2022-09-06T19:01:10.932Z,2.13
2022-09-06T19:03:38.317Z,1.52
2022-09-06T19:06:07.301Z,1.80
2022-09-06T19:08:34.509Z,1.90
2022-09-06T19:11:04.958Z,1.63
2022-09-06T19:13:32.314Z,1.98
2022-09-06T19:15:59.002Z,1.30
2022-09-06T19:18:26.936Z,1.63
2022-09-06T19:21:02.148Z,1.77
2022-09-06T19:23:29.282Z,1.80
2022-09-06T19:26:07.510Z,1.73
2022-09-06T19:28:35.620Z,2.05
2022-09-06T19:31:15.871Z,1.40
2022-09-06T19:33:43.895Z,1.60
2022-09-06T19:36:12.197Z,1.63
2022-09-06T19:38:59.574Z,1.58
2022-09-06T19:41:28.216Z,1.55
2022-09-06T19:43:56.213Z,1.60
2022-09-06T19:46:23.855Z,1.60
2022-09-06T19:48:52.486Z,1.40
2022-09-06T19:51:19.835Z,1.33
2022-09-06T19:53:54.099Z,1.27
2022-09-06T19:56:23.873Z,1.25
2022-09-06T19:58:56.027Z,1.50
2022-09-06T20:01:24.075Z,1.70
2022-09-06T20:03:51.465Z,1.50
2022-09-06T20:06:18.903Z,1.70
2022-09-06T20:08:50.009Z,1.88
2022-09-06T20:11:16.616Z,1.45
2022-09-06T20:13:43.547Z,1.60
2022-09-06T20:16:10.746Z,1.60
2022-09-06T20:18:37.739Z,1.52
2022-09-06T20:21:05.140Z,1.40
2022-09-06T20:23:34.145Z,1.67
2022-09-06T20:26:05.156Z,1.33
2022-09-06T20:28:32.571Z,1.70
2022-09-06T20:31:04.999Z,1.70
2022-09-06T20:33:32.315Z,1.70
2022-09-06T20:36:03.377Z,1.30
2022-09-06T20:38:34.749Z,1.35
2022-09-06T20:41:10.092Z,1.60
2022-09-06T20:43:38.357Z,1.20
2022-09-06T20:46:12.795Z,1.65
2022-09-06T20:48:44.187Z,1.33
2022-09-06T20:51:15.480Z,1.33
2022-09-06T20:53:42.468Z,1.50
2022-09-06T20:56:15.094Z,1.50
2022-09-06T20:58:42.291Z,1.67
2022-09-06T21:01:11.517Z,1.63
2022-09-06T21:03:40.837Z,1.75
2022-09-06T21:06:08.988Z,1.90
2022-09-06T21:08:41.871Z,1.73
2022-09-06T21:11:10.047Z,1.83
2022-09-06T21:13:36.964Z,2.35
2022-09-06T21:16:04.471Z,1.70
2022-09-06T21:18:31.669Z,2.10
2022-09-06T21:21:16.062Z,2.00
2022-09-06T21:23:42.561Z,1.85
2022-09-06T21:26:11.273Z,1.90
2022-09-06T21:28:40.027Z,2.00
2022-09-06T21:31:11.965Z,2.20
2022-09-06T21:33:41.119Z,2.47
2022-09-06T21:36:12.886Z,2.00
2022-09-06T21:38:42.738Z,2.10
2022-09-06T21:41:10.280Z,2.15
2022-09-06T21:43:37.003Z,2.10
2022-09-06T21:46:16.022Z,2.20
2022-09-06T21:48:47.805Z,2.38
2022-09-06T21:51:16.835Z,2.10
2022-09-06T21:53:46.671Z,2.30
2022-09-06T21:56:14.131Z,2.33
2022-09-06T21:58:40.777Z,2.05
2022-09-06T22:01:08.211Z,2.13
2022-09-06T22:03:40.208Z,2.25
2022-09-06T22:06:17.369Z,2.03
2022-09-06T22:08:44.642Z,2.10
2022-09-06T22:11:15.587Z,2.50
2022-09-06T22:13:43.470Z,2.45
2022-09-06T22:16:12.704Z,2.47
2022-09-06T22:18:39.415Z,2.20
2022-09-06T22:21:11.181Z,2.17
2022-09-06T22:23:38.477Z,2.08
2022-09-06T22:26:10.754Z,2.45
2022-09-06T22:28:37.990Z,1.92
2022-09-06T22:31:05.359Z,2.63
2022-09-06T22:33:31.985Z,2.33
2022-09-06T22:36:01.791Z,2.55
2022-09-06T22:38:29.882Z,2.40
2022-09-06T22:40:57.500Z,2.13
2022-09-06T22:43:24.180Z,2.00
2022-09-06T22:45:52.139Z,2.00
2022-09-06T22:48:19.240Z,2.10
2022-09-06T22:50:45.718Z,2.00
2022-09-06T22:53:13.316Z,2.33
2022-09-06T22:55:40.018Z,2.00
2022-09-06T22:58:06.659Z,1.92
2022-09-06T23:00:36.059Z,2.10
2022-09-06T23:03:02.730Z,1.83
2022-09-06T23:05:30.942Z,2.40
2022-09-06T23:07:57.881Z,1.85
2022-09-06T23:10:24.344Z,1.60
2022-09-06T23:12:54.419Z,1.98
2022-09-06T23:15:20.989Z,2.00
2022-09-06T23:17:47.501Z,1.77
2022-09-06T23:20:15.241Z,1.65
2022-09-06T23:22:41.727Z,2.47
2022-09-06T23:25:09.274Z,2.00
2022-09-06T23:27:35.809Z,1.92
2022-09-06T23:30:03.526Z,1.90
2022-09-06T23:32:32.438Z,1.70
2022-09-06T23:34:59.269Z,1.60
2022-09-06T23:37:25.768Z,1.73
2022-09-06T23:39:53.546Z,1.73
2022-09-06T23:42:21.013Z,1.60
2022-09-06T23:44:47.798Z,1.90
2022-09-06T23:47:14.465Z,1.80
2022-09-06T23:49:41.222Z,1.65
2022-09-06T23:52:07.835Z,1.80
2022-09-06T23:54:34.396Z,2.05
2022-09-06T23:57:00.850Z,1.80
2022-09-06T23:59:27.528Z,1.88
